sensor_id;sensor_type;location;lat;lon;timestamp;pressure;altitude;pressure_sealevel;temperature;humidity
64616;BME280;51027;42.162;24.754;2023-07-20T03:32:19;99049.78;;;26.03;57.09
64616;BME280;51027;42.162;24.754;2023-07-20T03:34:44;98998.75;;;25.85;57.13
64616;BME280;51027;42.162;24.754;2023-07-20T03:37:10;99096.88;;;26.48;56.95
64616;BME280;51027;42.162;24.754;2023-07-20T03:39:36;99111.13;;;26.64;57.23
64616;BME280;51027;42.162;24.754;2023-07-20T03:42:01;99103.19;;;26.63;57.32
64616;BME280;51027;42.162;24.754;2023-07-20T03:44:27;99095.63;;;26.58;57.07
64616;BME280;51027;42.162;24.754;2023-07-20T03:46:53;99087.56;;;26.50;57.40
64616;BME280;51027;42.162;24.754;2023-07-20T03:49:18;99064.31;;;26.41;58.08
64616;BME280;51027;42.162;24.754;2023-07-20T03:51:44;99091.41;;;26.56;58.05
64616;BME280;51027;42.162;24.754;2023-07-20T03:54:09;99093.59;;;26.60;57.64
64616;BME280;51027;42.162;24.754;2023-07-20T03:56:35;99104.19;;;26.70;58.14
64616;BME280;51027;42.162;24.754;2023-07-20T03:59:01;99105.03;;;26.70;58.24
64616;BME280;51027;42.162;24.754;2023-07-20T04:01:27;99110.72;;;26.76;58.39
64616;BME280;51027;42.162;24.754;2023-07-20T04:03:52;99102.84;;;26.66;58.94
64616;BME280;51027;42.162;24.754;2023-07-20T04:06:17;99103.44;;;26.76;58.11
64616;BME280;51027;42.162;24.754;2023-07-20T04:08:44;99117.09;;;26.83;57.79
64616;BME280;51027;42.162;24.754;2023-07-20T04:11:09;99121.22;;;26.70;57.89
64616;BME280;51027;42.162;24.754;2023-07-20T04:13:35;99127.03;;;26.59;57.84
64616;BME280;51027;42.162;24.754;2023-07-20T04:16:00;99122.84;;;26.57;58.53
64616;BME280;51027;42.162;24.754;2023-07-20T04:18:27;99120.66;;;26.36;59.34
64616;BME280;51027;42.162;24.754;2023-07-20T04:20:53;99119.06;;;26.19;61.09
64616;BME280;51027;42.162;24.754;2023-07-20T04:23:18;99139.28;;;26.23;61.02
64616;BME280;51027;42.162;24.754;2023-07-20T04:25:44;99115.25;;;25.97;61.74
64616;BME280;51027;42.162;24.754;2023-07-20T04:28:09;99129.44;;;25.91;61.92
64616;BME280;51027;42.162;24.754;2023-07-20T04:30:38;99105.50;;;25.88;61.90
64616;BME280;51027;42.162;24.754;2023-07-20T04:33:05;99137.69;;;26.05;62.43
64616;BME280;51027;42.162;24.754;2023-07-20T04:38:14;99130.97;;;25.77;63.29
64616;BME280;51027;42.162;24.754;2023-07-20T04:40:42;99136.88;;;25.80;63.93
64616;BME280;51027;42.162;24.754;2023-07-20T04:43:07;99116.31;;;25.71;63.55
64616;BME280;51027;42.162;24.754;2023-07-20T04:45:33;99134.34;;;25.79;64.17
64616;BME280;51027;42.162;24.754;2023-07-20T04:47:58;99122.72;;;25.70;64.65
64616;BME280;51027;42.162;24.754;2023-07-20T04:50:23;99124.03;;;25.74;63.83
64616;BME280;51027;42.162;24.754;2023-07-20T04:52:50;99151.19;;;25.97;63.57
64616;BME280;51027;42.162;24.754;2023-07-20T04:55:16;99141.91;;;25.83;64.05
64616;BME280;51027;42.162;24.754;2023-07-20T04:57:41;99153.88;;;25.89;64.60
64616;BME280;51027;42.162;24.754;2023-07-20T05:00:07;99138.72;;;25.72;64.50
64616;BME280;51027;42.162;24.754;2023-07-20T05:02:35;99145.63;;;25.91;64.06
64616;BME280;51027;42.162;24.754;2023-07-20T05:05:01;99155.56;;;25.98;64.07
64616;BME280;51027;42.162;24.754;2023-07-20T05:07:27;99154.50;;;26.16;63.62
64616;BME280;51027;42.162;24.754;2023-07-20T05:09:52;99155.13;;;26.26;62.74
64616;BME280;51027;42.162;24.754;2023-07-20T05:12:17;99129.34;;;26.15;62.56
64616;BME280;51027;42.162;24.754;2023-07-20T05:14:43;99131.16;;;26.31;62.52
64616;BME280;51027;42.162;24.754;2023-07-20T05:17:08;99143.66;;;26.40;62.43
64616;BME280;51027;42.162;24.754;2023-07-20T05:19:34;99131.16;;;26.47;61.84
64616;BME280;51027;42.162;24.754;2023-07-20T05:21:59;99149.50;;;26.52;62.84
64616;BME280;51027;42.162;24.754;2023-07-20T05:24:25;99130.25;;;26.55;61.78
64616;BME280;51027;42.162;24.754;2023-07-20T05:26:50;99109.16;;;26.58;60.69
64616;BME280;51027;42.162;24.754;2023-07-20T05:29:15;99125.41;;;26.81;60.33
64616;BME280;51027;42.162;24.754;2023-07-20T05:31:41;99140.34;;;26.92;60.60
64616;BME280;51027;42.162;24.754;2023-07-20T05:34:06;99138.59;;;27.07;59.72
64616;BME280;51027;42.162;24.754;2023-07-20T05:36:32;99139.16;;;27.03;60.02
64616;BME280;51027;42.162;24.754;2023-07-20T05:38:57;99110.19;;;26.80;60.41
64616;BME280;51027;42.162;24.754;2023-07-20T05:41:23;99126.41;;;27.11;60.66
64616;BME280;51027;42.162;24.754;2023-07-20T05:43:48;99130.38;;;27.23;58.96
64616;BME280;51027;42.162;24.754;2023-07-20T05:46:14;99126.59;;;27.33;58.22
64616;BME280;51027;42.162;24.754;2023-07-20T05:48:39;99123.22;;;27.31;58.26
64616;BME280;51027;42.162;24.754;2023-07-20T05:51:05;99101.22;;;27.34;57.86
64616;BME280;51027;42.162;24.754;2023-07-20T05:53:35;99096.41;;;27.44;57.21
64616;BME280;51027;42.162;24.754;2023-07-20T05:56:00;99089.38;;;27.35;57.28
64616;BME280;51027;42.162;24.754;2023-07-20T05:58:25;99106.19;;;27.68;56.86
64616;BME280;51027;42.162;24.754;2023-07-20T06:00:51;99107.31;;;27.73;57.02
64616;BME280;51027;42.162;24.754;2023-07-20T06:03:17;99080.16;;;27.67;57.18
64616;BME280;51027;42.162;24.754;2023-07-20T06:05:43;99094.56;;;27.82;56.40
64616;BME280;51027;42.162;24.754;2023-07-20T06:08:08;99090.53;;;27.93;56.42
64616;BME280;51027;42.162;24.754;2023-07-20T06:10:34;99090.81;;;27.98;57.21
64616;BME280;51027;42.162;24.754;2023-07-20T06:12:59;99083.38;;;28.00;56.13
64616;BME280;51027;42.162;24.754;2023-07-20T06:15:32;99097.63;;;28.23;55.44
64616;BME280;51027;42.162;24.754;2023-07-20T06:17:59;99092.81;;;28.33;56.35
64616;BME280;51027;42.162;24.754;2023-07-20T06:20:26;99059.66;;;28.31;55.04
64616;BME280;51027;42.162;24.754;2023-07-20T06:22:51;99080.53;;;28.37;55.05
64616;BME280;51027;42.162;24.754;2023-07-20T06:25:17;99083.50;;;28.57;54.22
64616;BME280;51027;42.162;24.754;2023-07-20T06:27:43;99090.78;;;28.72;53.26
64616;BME280;51027;42.162;24.754;2023-07-20T06:30:09;99083.34;;;28.80;52.90
64616;BME280;51027;42.162;24.754;2023-07-20T06:32:35;99072.63;;;28.72;53.38
64616;BME280;51027;42.162;24.754;2023-07-20T06:35:01;99066.53;;;28.70;53.51
64616;BME280;51027;42.162;24.754;2023-07-20T06:37:26;99068.47;;;28.91;53.83
64616;BME280;51027;42.162;24.754;2023-07-20T06:39:52;99082.03;;;28.91;53.03
64616;BME280;51027;42.162;24.754;2023-07-20T06:42:17;99078.88;;;29.09;53.28
64616;BME280;51027;42.162;24.754;2023-07-20T06:44:43;99070.28;;;29.05;52.37
64616;BME280;51027;42.162;24.754;2023-07-20T06:47:08;99081.91;;;29.20;53.02
64616;BME280;51027;42.162;24.754;2023-07-20T06:49:34;99066.13;;;29.31;52.44
64616;BME280;51027;42.162;24.754;2023-07-20T06:51:59;99073.69;;;29.35;52.17
64616;BME280;51027;42.162;24.754;2023-07-20T06:54:24;99075.50;;;29.49;51.73
64616;BME280;51027;42.162;24.754;2023-07-20T06:56:50;99081.63;;;29.37;51.42
64616;BME280;51027;42.162;24.754;2023-07-20T06:59:16;99062.19;;;29.54;51.58
64616;BME280;51027;42.162;24.754;2023-07-20T07:05:03;99073.84;;;29.76;50.15
64616;BME280;51027;42.162;24.754;2023-07-20T07:07:29;99074.59;;;29.64;49.88
64616;BME280;51027;42.162;24.754;2023-07-20T07:09:57;99070.75;;;29.86;50.88
64616;BME280;51027;42.162;24.754;2023-07-20T07:12:23;99068.31;;;29.98;49.52
64616;BME280;51027;42.162;24.754;2023-07-20T07:14:48;99059.97;;;29.99;49.61
64616;BME280;51027;42.162;24.754;2023-07-20T07:17:14;99080.16;;;30.18;48.53
64616;BME280;51027;42.162;24.754;2023-07-20T07:19:39;99061.22;;;29.97;48.83
64616;BME280;51027;42.162;24.754;2023-07-20T07:22:06;99075.16;;;29.87;48.55
64616;BME280;51027;42.162;24.754;2023-07-20T07:24:31;99056.81;;;29.96;48.80
64616;BME280;51027;42.162;24.754;2023-07-20T07:27:02;99061.56;;;30.22;48.28
64616;BME280;51027;42.162;24.754;2023-07-20T07:29:29;99081.88;;;30.26;47.83
64616;BME280;51027;42.162;24.754;2023-07-20T07:31:55;99069.34;;;30.31;47.09
64616;BME280;51027;42.162;24.754;2023-07-20T07:34:20;99061.28;;;30.51;47.66
64616;BME280;51027;42.162;24.754;2023-07-20T07:36:45;99067.06;;;30.76;46.78
64616;BME280;51027;42.162;24.754;2023-07-20T07:39:12;99053.69;;;30.88;46.97
64616;BME280;51027;42.162;24.754;2023-07-20T07:41:37;99058.50;;;30.99;47.07
64616;BME280;51027;42.162;24.754;2023-07-20T07:44:03;99064.81;;;31.06;46.92
64616;BME280;51027;42.162;24.754;2023-07-20T07:46:28;99060.81;;;31.02;46.98
64616;BME280;51027;42.162;24.754;2023-07-20T07:48:54;99060.41;;;30.99;47.04
64616;BME280;51027;42.162;24.754;2023-07-20T07:51:19;99060.63;;;31.10;47.56
64616;BME280;51027;42.162;24.754;2023-07-20T07:53:48;99040.34;;;31.26;46.42
64616;BME280;51027;42.162;24.754;2023-07-20T07:56:17;99039.94;;;31.22;46.18
64616;BME280;51027;42.162;24.754;2023-07-20T07:58:42;99057.72;;;31.45;44.92
64616;BME280;51027;42.162;24.754;2023-07-20T08:01:07;99049.78;;;31.50;44.66
64616;BME280;51027;42.162;24.754;2023-07-20T08:03:35;99063.38;;;31.70;44.22
64616;BME280;51027;42.162;24.754;2023-07-20T08:06:02;99058.75;;;31.84;44.51
64616;BME280;51027;42.162;24.754;2023-07-20T08:08:31;99063.50;;;32.08;44.15
64616;BME280;51027;42.162;24.754;2023-07-20T08:10:56;99066.44;;;32.20;43.38
64616;BME280;51027;42.162;24.754;2023-07-20T08:13:21;99050.47;;;32.17;43.38
64616;BME280;51027;42.162;24.754;2023-07-20T08:15:51;99048.44;;;32.05;43.17
64616;BME280;51027;42.162;24.754;2023-07-20T08:18:17;99063.31;;;32.03;43.41
64616;BME280;51027;42.162;24.754;2023-07-20T08:20:45;99051.38;;;32.04;43.07
64616;BME280;51027;42.162;24.754;2023-07-20T08:23:12;99065.56;;;32.32;43.20
64616;BME280;51027;42.162;24.754;2023-07-20T08:25:38;99037.28;;;32.14;43.07
64616;BME280;51027;42.162;24.754;2023-07-20T08:28:10;99038.06;;;32.27;43.14
64616;BME280;51027;42.162;24.754;2023-07-20T08:30:43;99042.69;;;32.40;42.91
64616;BME280;51027;42.162;24.754;2023-07-20T08:33:09;99053.53;;;32.47;42.70
64616;BME280;51027;42.162;24.754;2023-07-20T08:35:35;99064.19;;;32.55;43.22
64616;BME280;51027;42.162;24.754;2023-07-20T08:38:01;99067.03;;;32.73;42.40
64616;BME280;51027;42.162;24.754;2023-07-20T08:40:26;99044.56;;;32.84;42.10
64616;BME280;51027;42.162;24.754;2023-07-20T08:42:54;99050.41;;;32.88;41.81
64616;BME280;51027;42.162;24.754;2023-07-20T08:45:20;99058.34;;;32.89;42.07
64616;BME280;51027;42.162;24.754;2023-07-20T08:47:48;99061.63;;;33.05;41.82
64616;BME280;51027;42.162;24.754;2023-07-20T08:50:16;99060.63;;;32.61;41.61
64616;BME280;51027;42.162;24.754;2023-07-20T08:52:41;99046.84;;;32.87;41.89
64616;BME280;51027;42.162;24.754;2023-07-20T08:55:07;99036.53;;;33.21;41.83
64616;BME280;51027;42.162;24.754;2023-07-20T08:57:33;99048.28;;;33.21;41.92
64616;BME280;51027;42.162;24.754;2023-07-20T09:00:03;99045.06;;;33.31;41.51
64616;BME280;51027;42.162;24.754;2023-07-20T09:02:39;99049.63;;;33.37;41.66
64616;BME280;51027;42.162;24.754;2023-07-20T09:05:08;99032.50;;;33.23;41.39
64616;BME280;51027;42.162;24.754;2023-07-20T09:07:35;99041.00;;;33.65;41.25
64616;BME280;51027;42.162;24.754;2023-07-20T09:10:01;99029.53;;;33.75;41.03
64616;BME280;51027;42.162;24.754;2023-07-20T09:12:41;99019.75;;;33.86;40.40
64616;BME280;51027;42.162;24.754;2023-07-20T09:15:11;99034.44;;;33.91;39.59
64616;BME280;51027;42.162;24.754;2023-07-20T09:17:37;99013.03;;;33.88;39.65
64616;BME280;51027;42.162;24.754;2023-07-20T09:20:07;99032.63;;;34.03;40.00
64616;BME280;51027;42.162;24.754;2023-07-20T09:22:36;99033.59;;;34.09;39.75
64616;BME280;51027;42.162;24.754;2023-07-20T09:25:06;99023.44;;;33.98;39.40
64616;BME280;51027;42.162;24.754;2023-07-20T09:27:35;99015.75;;;34.25;38.99
64616;BME280;51027;42.162;24.754;2023-07-20T09:30:01;98994.25;;;34.28;40.15
64616;BME280;51027;42.162;24.754;2023-07-20T09:32:27;99003.00;;;34.19;39.44
64616;BME280;51027;42.162;24.754;2023-07-20T09:34:52;98996.94;;;34.17;39.51
64616;BME280;51027;42.162;24.754;2023-07-20T09:37:22;98996.47;;;34.38;39.27
64616;BME280;51027;42.162;24.754;2023-07-20T09:39:53;98997.22;;;34.45;39.13
64616;BME280;51027;42.162;24.754;2023-07-20T09:42:19;98991.78;;;34.57;39.03
64616;BME280;51027;42.162;24.754;2023-07-20T09:44:46;98979.47;;;34.78;38.71
64616;BME280;51027;42.162;24.754;2023-07-20T09:47:12;98958.16;;;34.68;38.08
64616;BME280;51027;42.162;24.754;2023-07-20T09:49:40;98944.38;;;34.75;38.69
64616;BME280;51027;42.162;24.754;2023-07-20T09:52:06;98988.81;;;34.88;38.46
64616;BME280;51027;42.162;24.754;2023-07-20T09:54:33;98961.66;;;34.87;38.03
64616;BME280;51027;42.162;24.754;2023-07-20T09:57:00;98958.78;;;34.82;37.67
64616;BME280;51027;42.162;24.754;2023-07-20T09:59:27;98970.75;;;34.99;38.15
64616;BME280;51027;42.162;24.754;2023-07-20T10:01:53;98971.81;;;34.98;37.75
64616;BME280;51027;42.162;24.754;2023-07-20T10:04:22;98976.22;;;35.22;37.96
64616;BME280;51027;42.162;24.754;2023-07-20T10:06:50;98963.16;;;35.36;37.16
64616;BME280;51027;42.162;24.754;2023-07-20T10:09:18;98960.31;;;35.43;36.75
64616;BME280;51027;42.162;24.754;2023-07-20T10:11:48;98955.06;;;35.53;36.39
64616;BME280;51027;42.162;24.754;2023-07-20T10:14:18;98938.28;;;35.26;35.95
64616;BME280;51027;42.162;24.754;2023-07-20T10:16:50;98929.81;;;35.28;35.78
64616;BME280;51027;42.162;24.754;2023-07-20T10:19:47;98938.88;;;35.40;36.27
64616;BME280;51027;42.162;24.754;2023-07-20T10:22:19;98931.47;;;35.52;35.47
64616;BME280;51027;42.162;24.754;2023-07-20T10:24:50;98934.56;;;35.32;36.44
64616;BME280;51027;42.162;24.754;2023-07-20T10:27:20;98934.72;;;35.49;35.98
64616;BME280;51027;42.162;24.754;2023-07-20T10:29:46;98905.53;;;35.43;36.15
64616;BME280;51027;42.162;24.754;2023-07-20T10:32:12;98912.56;;;35.39;35.85
64616;BME280;51027;42.162;24.754;2023-07-20T10:34:38;98915.06;;;35.40;35.89
64616;BME280;51027;42.162;24.754;2023-07-20T10:37:04;98915.59;;;35.66;36.10
64616;BME280;51027;42.162;24.754;2023-07-20T10:39:33;98899.91;;;35.61;35.50
64616;BME280;51027;42.162;24.754;2023-07-20T10:42:19;98889.06;;;35.66;36.35
64616;BME280;51027;42.162;24.754;2023-07-20T10:44:44;98888.19;;;35.77;35.32
64616;BME280;51027;42.162;24.754;2023-07-20T10:47:12;98918.19;;;35.96;35.67
64616;BME280;51027;42.162;24.754;2023-07-20T10:49:57;98905.88;;;36.10;35.53
64616;BME280;51027;42.162;24.754;2023-07-20T10:52:23;98906.50;;;36.29;35.10
64616;BME280;51027;42.162;24.754;2023-07-20T10:54:49;98909.03;;;36.47;33.55
64616;BME280;51027;42.162;24.754;2023-07-20T10:57:22;98876.53;;;36.56;32.87
64616;BME280;51027;42.162;24.754;2023-07-20T10:59:48;98903.31;;;36.66;31.47
64616;BME280;51027;42.162;24.754;2023-07-20T11:02:18;98890.19;;;36.51;30.74
64616;BME280;51027;42.162;24.754;2023-07-20T11:04:45;98865.69;;;36.32;30.06
64616;BME280;51027;42.162;24.754;2023-07-20T11:07:16;98879.63;;;36.59;31.20
64616;BME280;51027;42.162;24.754;2023-07-20T11:09:42;98869.91;;;36.23;31.60
64616;BME280;51027;42.162;24.754;2023-07-20T11:12:15;98866.41;;;36.11;31.48
64616;BME280;51027;42.162;24.754;2023-07-20T11:14:42;98832.91;;;36.38;31.44
64616;BME280;51027;42.162;24.754;2023-07-20T11:17:15;98876.75;;;36.83;31.69
64616;BME280;51027;42.162;24.754;2023-07-20T11:19:43;98874.63;;;36.73;31.76
64616;BME280;51027;42.162;24.754;2023-07-20T11:22:09;98883.19;;;36.43;32.08
64616;BME280;51027;42.162;24.754;2023-07-20T11:24:39;98859.59;;;36.59;31.65
64616;BME280;51027;42.162;24.754;2023-07-20T11:27:05;98853.84;;;36.60;31.48
64616;BME280;51027;42.162;24.754;2023-07-20T11:29:30;98862.41;;;36.64;31.84
64616;BME280;51027;42.162;24.754;2023-07-20T11:31:56;98869.72;;;36.75;31.25
64616;BME280;51027;42.162;24.754;2023-07-20T11:34:24;98845.94;;;36.64;31.54
64616;BME280;51027;42.162;24.754;2023-07-20T11:36:51;98858.41;;;36.72;31.62
64616;BME280;51027;42.162;24.754;2023-07-20T11:39:17;98858.25;;;36.95;30.51
64616;BME280;51027;42.162;24.754;2023-07-20T11:41:51;98841.66;;;37.07;31.67
64616;BME280;51027;42.162;24.754;2023-07-20T11:44:17;98836.84;;;37.14;31.33
64616;BME280;51027;42.162;24.754;2023-07-20T11:46:43;98837.97;;;36.79;30.94
64616;BME280;51027;42.162;24.754;2023-07-20T11:49:10;98832.19;;;36.98;30.71
64616;BME280;51027;42.162;24.754;2023-07-20T11:51:36;98845.84;;;37.09;30.98
64616;BME280;51027;42.162;24.754;2023-07-20T11:54:04;98839.59;;;37.31;30.39
64616;BME280;51027;42.162;24.754;2023-07-20T11:56:30;98835.69;;;37.10;30.54
64616;BME280;51027;42.162;24.754;2023-07-20T11:58:57;98778.25;;;36.86;30.93
64616;BME280;51027;42.162;24.754;2023-07-20T12:01:26;98810.63;;;37.06;31.18
64616;BME280;51027;42.162;24.754;2023-07-20T12:03:59;98842.91;;;37.16;30.74
64616;BME280;51027;42.162;24.754;2023-07-20T12:06:27;98839.13;;;37.39;30.89
64616;BME280;51027;42.162;24.754;2023-07-20T12:08:59;98800.00;;;37.10;31.40
64616;BME280;51027;42.162;24.754;2023-07-20T12:11:38;98823.41;;;37.56;30.73
64616;BME280;51027;42.162;24.754;2023-07-20T12:14:07;98800.59;;;37.56;31.28
64616;BME280;51027;42.162;24.754;2023-07-20T12:16:35;98799.16;;;37.75;31.17
64616;BME280;51027;42.162;24.754;2023-07-20T12:21:27;98772.19;;;37.72;30.80
64616;BME280;51027;42.162;24.754;2023-07-20T12:23:55;98780.09;;;37.68;30.52
64616;BME280;51027;42.162;24.754;2023-07-20T12:26:21;98771.09;;;37.73;30.52
64616;BME280;51027;42.162;24.754;2023-07-20T12:28:49;98768.06;;;37.47;30.32
64616;BME280;51027;42.162;24.754;2023-07-20T12:31:15;98773.53;;;37.69;30.68
64616;BME280;51027;42.162;24.754;2023-07-20T12:33:41;98778.03;;;37.54;30.93
64616;BME280;51027;42.162;24.754;2023-07-20T12:36:07;98742.97;;;37.66;30.38
64616;BME280;51027;42.162;24.754;2023-07-20T12:38:33;98661.25;;;37.29;30.22
64616;BME280;51027;42.162;24.754;2023-07-20T12:41:01;98742.28;;;38.02;30.21
64616;BME280;51027;42.162;24.754;2023-07-20T12:43:27;98755.44;;;38.00;30.48
64616;BME280;51027;42.162;24.754;2023-07-20T12:46:01;98731.94;;;37.88;31.02
64616;BME280;51027;42.162;24.754;2023-07-20T12:48:27;98714.97;;;37.69;30.32
64616;BME280;51027;42.162;24.754;2023-07-20T12:50:52;98743.88;;;37.98;30.77
64616;BME280;51027;42.162;24.754;2023-07-20T12:53:18;98737.34;;;37.78;29.75
64616;BME280;51027;42.162;24.754;2023-07-20T12:55:43;98731.31;;;37.81;30.76
64616;BME280;51027;42.162;24.754;2023-07-20T12:58:09;98740.94;;;37.78;29.88
64616;BME280;51027;42.162;24.754;2023-07-20T13:00:35;98737.28;;;37.24;30.25
64616;BME280;51027;42.162;24.754;2023-07-20T13:03:01;98760.38;;;37.28;30.58
64616;BME280;51027;42.162;24.754;2023-07-20T13:05:30;98750.56;;;36.71;31.55
64616;BME280;51027;42.162;24.754;2023-07-20T13:07:57;98749.47;;;36.89;32.89
64616;BME280;51027;42.162;24.754;2023-07-20T13:10:23;98756.09;;;37.15;31.17
64616;BME280;51027;42.162;24.754;2023-07-20T13:12:49;98764.72;;;37.24;31.80
64616;BME280;51027;42.162;24.754;2023-07-20T13:15:14;98759.88;;;37.53;30.99
64616;BME280;51027;42.162;24.754;2023-07-20T13:17:40;98731.66;;;37.35;30.80
64616;BME280;51027;42.162;24.754;2023-07-20T13:20:06;98746.31;;;37.41;30.81
64616;BME280;51027;42.162;24.754;2023-07-20T13:22:34;98770.66;;;37.59;30.47
64616;BME280;51027;42.162;24.754;2023-07-20T13:25:00;98771.75;;;37.58;30.87
64616;BME280;51027;42.162;24.754;2023-07-20T13:27:25;98755.47;;;37.52;30.35
64616;BME280;51027;42.162;24.754;2023-07-20T13:29:51;98770.50;;;37.44;30.70
64616;BME280;51027;42.162;24.754;2023-07-20T13:32:17;98773.66;;;37.58;30.58
64616;BME280;51027;42.162;24.754;2023-07-20T13:34:45;98755.56;;;37.84;30.76
64616;BME280;51027;42.162;24.754;2023-07-20T13:37:11;98752.34;;;37.21;30.96
64616;BME280;51027;42.162;24.754;2023-07-20T13:39:37;98765.72;;;37.34;31.31
64616;BME280;51027;42.162;24.754;2023-07-20T13:42:04;98754.50;;;37.19;31.29
64616;BME280;51027;42.162;24.754;2023-07-20T13:44:33;98763.91;;;37.01;31.25
64616;BME280;51027;42.162;24.754;2023-07-20T13:47:00;98759.88;;;36.53;31.11
64616;BME280;51027;42.162;24.754;2023-07-20T13:49:26;98746.13;;;36.87;30.34
64616;BME280;51027;42.162;24.754;2023-07-20T13:51:51;98743.34;;;37.04;30.93
64616;BME280;51027;42.162;24.754;2023-07-20T13:54:17;98751.47;;;37.37;30.13
64616;BME280;51027;42.162;24.754;2023-07-20T13:56:42;98748.19;;;36.97;28.63
64616;BME280;51027;42.162;24.754;2023-07-20T13:59:08;98758.75;;;36.88;28.67
64616;BME280;51027;42.162;24.754;2023-07-20T14:01:33;98745.13;;;36.76;29.05
64616;BME280;51027;42.162;24.754;2023-07-20T14:04:00;98742.56;;;36.86;28.85
64616;BME280;51027;42.162;24.754;2023-07-20T14:06:31;98747.41;;;36.62;29.25
64616;BME280;51027;42.162;24.754;2023-07-20T14:08:57;98743.41;;;36.70;29.78
64616;BME280;51027;42.162;24.754;2023-07-20T14:11:23;98743.38;;;37.09;29.38
64616;BME280;51027;42.162;24.754;2023-07-20T14:13:50;98748.38;;;37.12;29.67
64616;BME280;51027;42.162;24.754;2023-07-20T14:16:16;98736.72;;;37.00;28.59
64616;BME280;51027;42.162;24.754;2023-07-20T14:18:41;98725.94;;;36.98;30.04
64616;BME280;51027;42.162;24.754;2023-07-20T14:21:07;98723.94;;;37.10;29.32
64616;BME280;51027;42.162;24.754;2023-07-20T14:23:33;98717.63;;;37.10;29.33
64616;BME280;51027;42.162;24.754;2023-07-20T14:25:58;98713.13;;;37.04;28.59
64616;BME280;51027;42.162;24.754;2023-07-20T14:28:24;98715.56;;;37.00;29.30
64616;BME280;51027;42.162;24.754;2023-07-20T14:30:50;98720.28;;;36.66;28.92
64616;BME280;51027;42.162;24.754;2023-07-20T14:33:15;98707.00;;;36.97;28.49
64616;BME280;51027;42.162;24.754;2023-07-20T14:35:41;98707.06;;;37.02;28.48
64616;BME280;51027;42.162;24.754;2023-07-20T14:38:06;98693.59;;;37.22;28.28
64616;BME280;51027;42.162;24.754;2023-07-20T14:40:31;98694.00;;;37.31;29.78
64616;BME280;51027;42.162;24.754;2023-07-20T14:42:58;98693.88;;;37.26;29.10
64616;BME280;51027;42.162;24.754;2023-07-20T14:45:26;98710.00;;;37.17;29.33
64616;BME280;51027;42.162;24.754;2023-07-20T14:47:52;98688.13;;;37.27;28.54
64616;BME280;51027;42.162;24.754;2023-07-20T14:50:22;98716.91;;;37.41;26.78
64616;BME280;51027;42.162;24.754;2023-07-20T14:52:48;98715.56;;;37.44;25.56
64616;BME280;51027;42.162;24.754;2023-07-20T14:55:14;98718.97;;;37.56;24.48
64616;BME280;51027;42.162;24.754;2023-07-20T14:57:40;98721.03;;;37.44;24.92
64616;BME280;51027;42.162;24.754;2023-07-20T15:00:06;98722.06;;;37.38;25.47
64616;BME280;51027;42.162;24.754;2023-07-20T15:02:38;98708.03;;;37.12;25.37
64616;BME280;51027;42.162;24.754;2023-07-20T15:05:06;98729.44;;;37.10;25.45
64616;BME280;51027;42.162;24.754;2023-07-20T15:07:32;98724.63;;;37.01;25.21
64616;BME280;51027;42.162;24.754;2023-07-20T15:09:58;98741.72;;;37.08;25.57
64616;BME280;51027;42.162;24.754;2023-07-20T15:12:23;98738.16;;;37.07;25.64
64616;BME280;51027;42.162;24.754;2023-07-20T15:15:11;98750.22;;;37.06;25.92
64616;BME280;51027;42.162;24.754;2023-07-20T15:17:38;98739.50;;;36.83;26.69
64616;BME280;51027;42.162;24.754;2023-07-20T15:20:04;98731.59;;;36.70;26.98
64616;BME280;51027;42.162;24.754;2023-07-20T15:22:34;98756.88;;;36.72;26.89
64616;BME280;51027;42.162;24.754;2023-07-20T15:25:02;98759.63;;;36.72;26.93
64616;BME280;51027;42.162;24.754;2023-07-20T15:27:27;98749.59;;;36.60;27.22
64616;BME280;51027;42.162;24.754;2023-07-20T15:29:53;98762.47;;;36.60;26.98
64616;BME280;51027;42.162;24.754;2023-07-20T15:32:18;98756.22;;;36.64;27.53
64616;BME280;51027;42.162;24.754;2023-07-20T15:34:45;98776.34;;;36.70;28.12
64616;BME280;51027;42.162;24.754;2023-07-20T15:37:11;98767.72;;;36.45;27.54
64616;BME280;51027;42.162;24.754;2023-07-20T15:39:37;98776.19;;;36.43;28.38
64616;BME280;51027;42.162;24.754;2023-07-20T15:42:04;98778.88;;;36.38;28.12
64616;BME280;51027;42.162;24.754;2023-07-20T15:44:29;98768.53;;;36.28;28.38
64616;BME280;51027;42.162;24.754;2023-07-20T15:46:55;98772.84;;;36.24;28.42
64616;BME280;51027;42.162;24.754;2023-07-20T15:49:21;98776.63;;;36.06;28.20
64616;BME280;51027;42.162;24.754;2023-07-20T15:51:46;98765.19;;;36.10;28.37
64616;BME280;51027;42.162;24.754;2023-07-20T15:54:13;98773.06;;;36.06;28.34
64616;BME280;51027;42.162;24.754;2023-07-20T15:56:40;98761.06;;;36.07;28.97
64616;BME280;51027;42.162;24.754;2023-07-20T15:59:09;98771.44;;;36.22;28.96
64616;BME280;51027;42.162;24.754;2023-07-20T16:01:34;98787.22;;;36.15;28.80
64616;BME280;51027;42.162;24.754;2023-07-20T16:04:01;98763.19;;;36.05;28.61
64616;BME280;51027;42.162;24.754;2023-07-20T16:06:27;98782.66;;;36.20;28.51
64616;BME280;51027;42.162;24.754;2023-07-20T16:08:52;98781.91;;;36.08;29.14
64616;BME280;51027;42.162;24.754;2023-07-20T16:11:18;98778.56;;;36.06;28.76
64616;BME280;51027;42.162;24.754;2023-07-20T16:13:44;98786.56;;;35.79;29.47
64616;BME280;51027;42.162;24.754;2023-07-20T16:16:10;98776.41;;;35.79;29.40
64616;BME280;51027;42.162;24.754;2023-07-20T16:18:36;98788.09;;;35.87;30.02
64616;BME280;51027;42.162;24.754;2023-07-20T16:21:01;98787.19;;;35.69;29.92
64616;BME280;51027;42.162;24.754;2023-07-20T16:23:27;98781.13;;;35.67;29.76
64616;BME280;51027;42.162;24.754;2023-07-20T16:25:52;98778.56;;;35.49;29.97
64616;BME280;51027;42.162;24.754;2023-07-20T16:28:18;98788.53;;;35.55;30.01